Sabina, Ohio
Current Conditions -  °F | °C
As of 7:46 AM on Wednesday 26 Nov 2014 (Local Time) from KILN Reporting Station
Overcast Overcast  
Wind Chill: 16°   Ceiling: 1700
Heat Index: 26°   Visibility: 7mi
Dew Point: 23°   Wind: 10mph
Humidity: 88%   Direction: 360°N
Pressure: 30.1"   Gusts: NA
Location:  39.49°N, 83.64°W
Report Text: KILN 261246Z AUTO 36009KT 7SM FEW012 OVC017 M03/M05 A3010 RMK AO2 T10331050
Loading
Personal Weather Stations






























Interactive Weather Map New forecast layout! Learn more

10-Day Weather Forecast

Advertisements
Track Severe Weather on mobile